Edgemont, Arkansas
Current Conditions -  °F | °C
As of 2:35 AM on Tuesday 21 Oct 2014 (Local Time) from KBVX Reporting Station
Clear Clear  
Wind Chill: 57°   Ceiling: Unl
Heat Index: 57°   Visibility: 7mi
Dew Point: 55°   Wind: 5mph
Humidity: 94%   Direction: 270°W
Pressure: 30.05"   Gusts: NA
Location:  35.6°N, 92.2°W
Report Text: KBVX 210735Z AUTO 27004KT 7SM CLR 14/13 A3005 RMK AO1
Loading
Personal Weather Stations






























Interactive Weather Map
Tropical Storm Tracking
New forecast layout! Learn more

10-Day Weather Forecast

Advertisements
Track Severe Weather on mobile